sensor_id;sensor_type;location;lat;lon;timestamp;pressure;altitude;pressure_sealevel;temperature;humidity
49841;BME280;35738;49.890;5.930;2023-05-08T00:01:54;96204.09;;;11.55;100.00
49841;BME280;35738;49.890;5.930;2023-05-08T00:04:20;96208.13;;;11.58;100.00
49841;BME280;35738;49.890;5.930;2023-05-08T00:06:47;96208.94;;;11.58;100.00
49841;BME280;35738;49.890;5.930;2023-05-08T00:09:14;96216.06;;;11.59;100.00
49841;BME280;35738;49.890;5.930;2023-05-08T00:11:40;96218.03;;;11.59;100.00
49841;BME280;35738;49.890;5.930;2023-05-08T00:14:07;96221.09;;;11.57;100.00
49841;BME280;35738;49.890;5.930;2023-05-08T00:16:33;96219.50;;;11.56;100.00
49841;BME280;35738;49.890;5.930;2023-05-08T00:19:00;96222.25;;;11.56;100.00
49841;BME280;35738;49.890;5.930;2023-05-08T00:21:27;96225.00;;;11.56;100.00
49841;BME280;35738;49.890;5.930;2023-05-08T00:23:53;96212.34;;;11.55;100.00
49841;BME280;35738;49.890;5.930;2023-05-08T00:26:20;96217.88;;;11.55;100.00
49841;BME280;35738;49.890;5.930;2023-05-08T00:28:47;96222.09;;;11.53;100.00
49841;BME280;35738;49.890;5.930;2023-05-08T00:31:13;96218.03;;;11.50;100.00
49841;BME280;35738;49.890;5.930;2023-05-08T00:33:40;96229.72;;;11.47;100.00
49841;BME280;35738;49.890;5.930;2023-05-08T00:36:07;96225.00;;;11.48;100.00
49841;BME280;35738;49.890;5.930;2023-05-08T00:38:34;96226.97;;;11.47;100.00
49841;BME280;35738;49.890;5.930;2023-05-08T00:41:02;96231.97;;;11.45;100.00
49841;BME280;35738;49.890;5.930;2023-05-08T00:43:29;96230.38;;;11.44;100.00
49841;BME280;35738;49.890;5.930;2023-05-08T00:45:58;96228.59;;;11.39;100.00
49841;BME280;35738;49.890;5.930;2023-05-08T00:48:28;96240.75;;;11.38;100.00
49841;BME280;35738;49.890;5.930;2023-05-08T00:50:55;96247.38;;;11.37;100.00
49841;BME280;35738;49.890;5.930;2023-05-08T00:53:24;96252.41;;;11.35;100.00
49841;BME280;35738;49.890;5.930;2023-05-08T00:55:52;96239.63;;;11.31;100.00
49841;BME280;35738;49.890;5.930;2023-05-08T00:58:19;96233.31;;;11.30;100.00
49841;BME280;35738;49.890;5.930;2023-05-08T01:00:48;96239.13;;;11.29;100.00
49841;BME280;35738;49.890;5.930;2023-05-08T01:03:17;96240.25;;;11.28;100.00
49841;BME280;35738;49.890;5.930;2023-05-08T01:05:44;96240.75;;;11.30;100.00
49841;BME280;35738;49.890;5.930;2023-05-08T01:08:11;96234.44;;;11.29;100.00
49841;BME280;35738;49.890;5.930;2023-05-08T01:10:47;96240.75;;;11.30;100.00
49841;BME280;35738;49.890;5.930;2023-05-08T01:13:58;96238.00;;;11.30;100.00
49841;BME280;35738;49.890;5.930;2023-05-08T01:16:40;96245.13;;;11.31;100.00
49841;BME280;35738;49.890;5.930;2023-05-08T01:25:25;96224.88;;;11.27;100.00
49841;BME280;35738;49.890;5.930;2023-05-08T01:30:32;96239.94;;;11.29;100.00
49841;BME280;35738;49.890;5.930;2023-05-08T01:33:34;96239.63;;;11.31;100.00
49841;BME280;35738;49.890;5.930;2023-05-08T01:36:13;96244.63;;;11.29;100.00
49841;BME280;35738;49.890;5.930;2023-05-08T01:38:52;96240.59;;;11.26;100.00
49841;BME280;35738;49.890;5.930;2023-05-08T01:41:26;96243.66;;;11.25;100.00
49841;BME280;35738;49.890;5.930;2023-05-08T01:46:31;96244.00;;;11.23;100.00
49841;BME280;35738;49.890;5.930;2023-05-08T01:49:05;96242.38;;;11.22;100.00
49841;BME280;35738;49.890;5.930;2023-05-08T01:51:42;96247.56;;;11.24;100.00
49841;BME280;35738;49.890;5.930;2023-05-08T01:54:18;96242.84;;;11.24;100.00
49841;BME280;35738;49.890;5.930;2023-05-08T01:56:49;96255.50;;;11.25;100.00
49841;BME280;35738;49.890;5.930;2023-05-08T01:59:21;96243.66;;;11.25;100.00
49841;BME280;35738;49.890;5.930;2023-05-08T02:01:51;96249.19;;;11.25;100.00
49841;BME280;35738;49.890;5.930;2023-05-08T02:04:20;96243.66;;;11.25;100.00
49841;BME280;35738;49.890;5.930;2023-05-08T02:06:50;96251.94;;;11.25;100.00
49841;BME280;35738;49.890;5.930;2023-05-08T02:09:18;96255.00;;;11.23;100.00
49841;BME280;35738;49.890;5.930;2023-05-08T02:11:48;96249.97;;;11.25;100.00
49841;BME280;35738;49.890;5.930;2023-05-08T02:14:18;96257.44;;;11.25;100.00
49841;BME280;35738;49.890;5.930;2023-05-08T02:16:48;96256.31;;;11.26;100.00
49841;BME280;35738;49.890;5.930;2023-05-08T02:19:17;96250.47;;;11.27;100.00
49841;BME280;35738;49.890;5.930;2023-05-08T02:21:47;96254.69;;;11.25;100.00
49841;BME280;35738;49.890;5.930;2023-05-08T02:24:16;96253.53;;;11.26;100.00
49841;BME280;35738;49.890;5.930;2023-05-08T02:26:45;96260.34;;;11.28;100.00
49841;BME280;35738;49.890;5.930;2023-05-08T02:29:12;96260.34;;;11.28;100.00
49841;BME280;35738;49.890;5.930;2023-05-08T02:31:40;96249.66;;;11.27;100.00
49841;BME280;35738;49.890;5.930;2023-05-08T02:34:08;96258.25;;;11.25;100.00
49841;BME280;35738;49.890;5.930;2023-05-08T02:36:36;96257.09;;;11.26;100.00
49841;BME280;35738;49.890;5.930;2023-05-08T02:39:04;96260.19;;;11.25;100.00
49841;BME280;35738;49.890;5.930;2023-05-08T02:41:34;96264.88;;;11.24;100.00
49841;BME280;35738;49.890;5.930;2023-05-08T02:44:02;96264.06;;;11.24;100.00
49841;BME280;35738;49.890;5.930;2023-05-08T02:46:38;96268.13;;;11.26;100.00
49841;BME280;35738;49.890;5.930;2023-05-08T02:49:26;96264.88;;;11.24;100.00
49841;BME280;35738;49.890;5.930;2023-05-08T03:03:30;96266.66;;;11.20;100.00
49841;BME280;35738;49.890;5.930;2023-05-08T03:09:19;96265.38;;;11.18;100.00
49841;BME280;35738;49.890;5.930;2023-05-08T03:11:49;96273.94;;;11.16;100.00
49841;BME280;35738;49.890;5.930;2023-05-08T03:14:21;96274.75;;;11.17;100.00
49841;BME280;35738;49.890;5.930;2023-05-08T03:16:51;96263.44;;;11.18;100.00
49841;BME280;35738;49.890;5.930;2023-05-08T03:19:24;96272.97;;;11.21;100.00
49841;BME280;35738;49.890;5.930;2023-05-08T03:21:53;96270.72;;;11.23;100.00
49841;BME280;35738;49.890;5.930;2023-05-08T03:24:22;96267.63;;;11.24;100.00
49841;BME280;35738;49.890;5.930;2023-05-08T03:26:50;96269.59;;;11.24;100.00
49841;BME280;35738;49.890;5.930;2023-05-08T03:29:17;96272.00;;;11.25;100.00
49841;BME280;35738;49.890;5.930;2023-05-08T03:31:46;96267.31;;;11.26;100.00
49841;BME280;35738;49.890;5.930;2023-05-08T03:34:13;96265.53;;;11.30;100.00
49841;BME280;35738;49.890;5.930;2023-05-08T03:36:41;96271.53;;;11.32;100.00
49841;BME280;35738;49.890;5.930;2023-05-08T03:39:08;96274.75;;;11.34;100.00
49841;BME280;35738;49.890;5.930;2023-05-08T03:41:35;96276.38;;;11.35;100.00
49841;BME280;35738;49.890;5.930;2023-05-08T03:44:01;96279.13;;;11.35;100.00
49841;BME280;35738;49.890;5.930;2023-05-08T03:46:30;96278.81;;;11.36;100.00
49841;BME280;35738;49.890;5.930;2023-05-08T03:48:57;96281.25;;;11.38;100.00
49841;BME280;35738;49.890;5.930;2023-05-08T03:51:26;96278.50;;;11.38;100.00
49841;BME280;35738;49.890;5.930;2023-05-08T03:53:53;96285.13;;;11.37;100.00
49841;BME280;35738;49.890;5.930;2023-05-08T03:56:20;96283.50;;;11.36;100.00
49841;BME280;35738;49.890;5.930;2023-05-08T04:01:46;96273.94;;;11.25;100.00
49841;BME280;35738;49.890;5.930;2023-05-08T04:04:27;96277.19;;;11.18;100.00
49841;BME280;35738;49.890;5.930;2023-05-08T04:07:02;96275.38;;;11.13;100.00
49841;BME280;35738;49.890;5.930;2023-05-08T04:15:19;96276.50;;;11.12;100.00
49841;BME280;35738;49.890;5.930;2023-05-08T04:17:52;96276.84;;;11.11;100.00
49841;BME280;35738;49.890;5.930;2023-05-08T04:20:21;96270.53;;;11.10;100.00
49841;BME280;35738;49.890;5.930;2023-05-08T04:22:52;96276.84;;;11.11;100.00
49841;BME280;35738;49.890;5.930;2023-05-08T04:25:20;96271.97;;;11.08;100.00
49841;BME280;35738;49.890;5.930;2023-05-08T04:27:47;96273.09;;;11.07;100.00
49841;BME280;35738;49.890;5.930;2023-05-08T04:30:16;96279.75;;;11.06;100.00
49841;BME280;35738;49.890;5.930;2023-05-08T04:32:43;96275.06;;;11.06;100.00
49841;BME280;35738;49.890;5.930;2023-05-08T04:35:12;96283.78;;;11.08;100.00
49841;BME280;35738;49.890;5.930;2023-05-08T04:37:40;96282.97;;;11.08;100.00
49841;BME280;35738;49.890;5.930;2023-05-08T04:40:09;96284.78;;;11.12;100.00
49841;BME280;35738;49.890;5.930;2023-05-08T04:42:36;96275.91;;;11.16;100.00
49841;BME280;35738;49.890;5.930;2023-05-08T04:45:05;96287.41;;;11.18;100.00
49841;BME280;35738;49.890;5.930;2023-05-08T04:47:32;96289.19;;;11.22;100.00
49841;BME280;35738;49.890;5.930;2023-05-08T04:49:58;96294.03;;;11.25;100.00
49841;BME280;35738;49.890;5.930;2023-05-08T04:52:30;96298.09;;;11.28;100.00
49841;BME280;35738;49.890;5.930;2023-05-08T04:54:57;96301.31;;;11.30;100.00
49841;BME280;35738;49.890;5.930;2023-05-08T04:57:23;96295.81;;;11.30;100.00
49841;BME280;35738;49.890;5.930;2023-05-08T04:59:50;96291.13;;;11.30;100.00
49841;BME280;35738;49.890;5.930;2023-05-08T05:02:16;96293.56;;;11.32;100.00
49841;BME280;35738;49.890;5.930;2023-05-08T05:04:43;96289.34;;;11.34;100.00
49841;BME280;35738;49.890;5.930;2023-05-08T05:07:10;96289.19;;;11.39;100.00
49841;BME280;35738;49.890;5.930;2023-05-08T05:09:36;96288.53;;;11.42;100.00
49841;BME280;35738;49.890;5.930;2023-05-08T05:12:05;96289.81;;;11.45;100.00
49841;BME280;35738;49.890;5.930;2023-05-08T05:14:32;96291.44;;;11.55;100.00
49841;BME280;35738;49.890;5.930;2023-05-08T05:16:59;96293.38;;;11.63;100.00
49841;BME280;35738;49.890;5.930;2023-05-08T05:19:25;96297.72;;;11.72;100.00
49841;BME280;35738;49.890;5.930;2023-05-08T05:21:52;96306.97;;;11.85;100.00
49841;BME280;35738;49.890;5.930;2023-05-08T05:24:19;96311.84;;;11.97;100.00
49841;BME280;35738;49.890;5.930;2023-05-08T05:26:45;96311.66;;;12.02;100.00
49841;BME280;35738;49.890;5.930;2023-05-08T05:29:12;96314.91;;;12.04;100.00
49841;BME280;35738;49.890;5.930;2023-05-08T05:31:38;96320.75;;;12.02;100.00
49841;BME280;35738;49.890;5.930;2023-05-08T05:34:05;96317.97;;;12.11;100.00
49841;BME280;35738;49.890;5.930;2023-05-08T05:36:32;96311.66;;;12.02;100.00
49841;BME280;35738;49.890;5.930;2023-05-08T05:38:58;96315.25;;;11.94;100.00
49841;BME280;35738;49.890;5.930;2023-05-08T05:41:25;96313.94;;;11.83;100.00
49841;BME280;35738;49.890;5.930;2023-05-08T05:43:51;96310.72;;;11.81;100.00
49841;BME280;35738;49.890;5.930;2023-05-08T05:46:18;96324.63;;;12.10;100.00
49841;BME280;35738;49.890;5.930;2023-05-08T05:48:44;96330.47;;;12.64;100.00
49841;BME280;35738;49.890;5.930;2023-05-08T05:51:11;96323.19;;;12.51;100.00
49841;BME280;35738;49.890;5.930;2023-05-08T05:53:38;96324.56;;;12.27;100.00
49841;BME280;35738;49.890;5.930;2023-05-08T05:56:05;96328.31;;;12.23;100.00
49841;BME280;35738;49.890;5.930;2023-05-08T05:58:32;96330.19;;;12.86;100.00
49841;BME280;35738;49.890;5.930;2023-05-08T06:00:58;96329.97;;;14.04;100.00
49841;BME280;35738;49.890;5.930;2023-05-08T06:03:28;96329.25;;;13.41;100.00
49841;BME280;35738;49.890;5.930;2023-05-08T06:05:55;96330.81;;;13.21;100.00
49841;BME280;35738;49.890;5.930;2023-05-08T06:08:22;96326.09;;;13.22;100.00
49841;BME280;35738;49.890;5.930;2023-05-08T06:10:48;96323.56;;;13.08;100.00
49841;BME280;35738;49.890;5.930;2023-05-08T06:13:15;96320.09;;;12.90;100.00
49841;BME280;35738;49.890;5.930;2023-05-08T06:15:41;96317.72;;;12.80;100.00
49841;BME280;35738;49.890;5.930;2023-05-08T06:18:08;96319.84;;;12.75;100.00
49841;BME280;35738;49.890;5.930;2023-05-08T06:20:36;96316.56;;;12.81;100.00
49841;BME280;35738;49.890;5.930;2023-05-08T06:23:04;96315.84;;;12.93;100.00
49841;BME280;35738;49.890;5.930;2023-05-08T06:25:30;96312.19;;;12.80;100.00
49841;BME280;35738;49.890;5.930;2023-05-08T06:27:57;96314.28;;;12.83;100.00
49841;BME280;35738;49.890;5.930;2023-05-08T06:30:23;96322.28;;;12.76;100.00
49841;BME280;35738;49.890;5.930;2023-05-08T06:32:50;96316.00;;;12.67;100.00
49841;BME280;35738;49.890;5.930;2023-05-08T06:35:17;96319.44;;;12.64;100.00
49841;BME280;35738;49.890;5.930;2023-05-08T06:37:45;96315.34;;;12.70;100.00
49841;BME280;35738;49.890;5.930;2023-05-08T06:40:12;96319.06;;;12.74;100.00
49841;BME280;35738;49.890;5.930;2023-05-08T06:42:39;96314.00;;;12.76;100.00
49841;BME280;35738;49.890;5.930;2023-05-08T06:45:07;96312.28;;;12.92;100.00
49841;BME280;35738;49.890;5.930;2023-05-08T06:47:34;96309.75;;;13.08;100.00
49841;BME280;35738;49.890;5.930;2023-05-08T06:50:01;96311.22;;;13.05;100.00
49841;BME280;35738;49.890;5.930;2023-05-08T06:52:28;96308.38;;;12.93;100.00
49841;BME280;35738;49.890;5.930;2023-05-08T06:54:55;96310.91;;;12.78;100.00
49841;BME280;35738;49.890;5.930;2023-05-08T06:57:21;96308.38;;;12.93;100.00
49841;BME280;35738;49.890;5.930;2023-05-08T06:59:49;96304.88;;;12.84;100.00
49841;BME280;35738;49.890;5.930;2023-05-08T07:02:16;96319.28;;;13.19;100.00
49841;BME280;35738;49.890;5.930;2023-05-08T07:04:43;96318.28;;;13.24;100.00
49841;BME280;35738;49.890;5.930;2023-05-08T07:07:09;96311.41;;;13.30;100.00
49841;BME280;35738;49.890;5.930;2023-05-08T07:09:36;96312.91;;;13.27;100.00
49841;BME280;35738;49.890;5.930;2023-05-08T07:12:03;96316.75;;;13.35;100.00
49841;BME280;35738;49.890;5.930;2023-05-08T07:14:30;96317.00;;;13.21;100.00
49841;BME280;35738;49.890;5.930;2023-05-08T07:16:57;96328.75;;;13.39;100.00
49841;BME280;35738;49.890;5.930;2023-05-08T07:19:24;96327.19;;;13.29;100.00
49841;BME280;35738;49.890;5.930;2023-05-08T07:21:50;96326.13;;;13.63;100.00
49841;BME280;35738;49.890;5.930;2023-05-08T07:24:17;96327.34;;;13.54;100.00
49841;BME280;35738;49.890;5.930;2023-05-08T07:26:43;96329.72;;;13.97;100.00
49841;BME280;35738;49.890;5.930;2023-05-08T07:29:11;96322.28;;;14.10;100.00
49841;BME280;35738;49.890;5.930;2023-05-08T07:31:40;96325.69;;;13.94;100.00
49841;BME280;35738;49.890;5.930;2023-05-08T07:34:07;96330.97;;;14.20;100.00
49841;BME280;35738;49.890;5.930;2023-05-08T07:36:33;96319.00;;;14.28;100.00
49841;BME280;35738;49.890;5.930;2023-05-08T07:39:00;96324.91;;;14.06;100.00
49841;BME280;35738;49.890;5.930;2023-05-08T07:41:26;96334.69;;;14.04;100.00
49841;BME280;35738;49.890;5.930;2023-05-08T07:43:53;96339.94;;;13.84;100.00
49841;BME280;35738;49.890;5.930;2023-05-08T07:46:20;96324.31;;;13.67;100.00
49841;BME280;35738;49.890;5.930;2023-05-08T07:48:48;96325.63;;;13.82;100.00
49841;BME280;35738;49.890;5.930;2023-05-08T07:51:14;96321.22;;;14.02;100.00
49841;BME280;35738;49.890;5.930;2023-05-08T07:53:42;96320.41;;;14.02;100.00
49841;BME280;35738;49.890;5.930;2023-05-08T07:56:09;96322.91;;;13.94;100.00
49841;BME280;35738;49.890;5.930;2023-05-08T07:58:35;96322.94;;;14.27;100.00
49841;BME280;35738;49.890;5.930;2023-05-08T08:01:04;96312.75;;;14.65;100.00
49841;BME280;35738;49.890;5.930;2023-05-08T08:03:30;96305.72;;;14.67;100.00
49841;BME280;35738;49.890;5.930;2023-05-08T08:05:57;96316.13;;;15.07;100.00
49841;BME280;35738;49.890;5.930;2023-05-08T08:08:24;96306.38;;;15.37;100.00
49841;BME280;35738;49.890;5.930;2023-05-08T08:10:50;96298.88;;;15.38;100.00
49841;BME280;35738;49.890;5.930;2023-05-08T08:13:18;96304.50;;;15.41;100.00
49841;BME280;35738;49.890;5.930;2023-05-08T08:15:44;96311.25;;;15.16;100.00
49841;BME280;35738;49.890;5.930;2023-05-08T08:18:11;96299.06;;;15.45;100.00
49841;BME280;35738;49.890;5.930;2023-05-08T08:20:38;96294.41;;;15.73;100.00
49841;BME280;35738;49.890;5.930;2023-05-08T08:23:05;96292.16;;;15.91;100.00
49841;BME280;35738;49.890;5.930;2023-05-08T08:25:33;96281.00;;;15.75;100.00
49841;BME280;35738;49.890;5.930;2023-05-08T08:27:59;96292.13;;;15.51;100.00
49841;BME280;35738;49.890;5.930;2023-05-08T08:30:26;96289.09;;;15.16;100.00
49841;BME280;35738;49.890;5.930;2023-05-08T08:32:53;96303.31;;;15.02;100.00
49841;BME280;35738;49.890;5.930;2023-05-08T08:35:19;96307.91;;;15.10;100.00
49841;BME280;35738;49.890;5.930;2023-05-08T08:37:46;96304.28;;;15.34;100.00
49841;BME280;35738;49.890;5.930;2023-05-08T08:40:12;96297.34;;;15.65;100.00
49841;BME280;35738;49.890;5.930;2023-05-08T08:42:39;96303.25;;;15.39;100.00
49841;BME280;35738;49.890;5.930;2023-05-08T08:45:06;96301.00;;;15.04;100.00
49841;BME280;35738;49.890;5.930;2023-05-08T08:47:34;96298.59;;;15.55;100.00
49841;BME280;35738;49.890;5.930;2023-05-08T08:50:08;96294.66;;;15.96;100.00
49841;BME280;35738;49.890;5.930;2023-05-08T08:52:50;96299.91;;;16.29;100.00
49841;BME280;35738;49.890;5.930;2023-05-08T08:55:21;96286.53;;;16.47;100.00
49841;BME280;35738;49.890;5.930;2023-05-08T09:00:35;96282.13;;;17.09;100.00
49841;BME280;35738;49.890;5.930;2023-05-08T09:03:04;96279.16;;;17.53;100.00
49841;BME280;35738;49.890;5.930;2023-05-08T09:05:32;96268.28;;;17.28;100.00
49841;BME280;35738;49.890;5.930;2023-05-08T09:08:00;96268.78;;;16.99;100.00
49841;BME280;35738;49.890;5.930;2023-05-08T09:10:26;96263.44;;;16.59;100.00
49841;BME280;35738;49.890;5.930;2023-05-08T09:12:53;96270.88;;;16.39;100.00
49841;BME280;35738;49.890;5.930;2023-05-08T09:15:20;96271.91;;;16.34;100.00
49841;BME280;35738;49.890;5.930;2023-05-08T09:17:47;96270.31;;;16.49;100.00
49841;BME280;35738;49.890;5.930;2023-05-08T09:20:14;96273.72;;;16.58;100.00
49841;BME280;35738;49.890;5.930;2023-05-08T09:22:42;96265.78;;;16.72;100.00
49841;BME280;35738;49.890;5.930;2023-05-08T09:25:09;96253.75;;;16.84;100.00
49841;BME280;35738;49.890;5.930;2023-05-08T09:27:36;96264.22;;;16.59;100.00
49841;BME280;35738;49.890;5.930;2023-05-08T09:30:10;96260.94;;;16.53;100.00
49841;BME280;35738;49.890;5.930;2023-05-08T09:32:39;96260.38;;;16.48;100.00
49841;BME280;35738;49.890;5.930;2023-05-08T09:35:07;96246.56;;;16.20;100.00
49841;BME280;35738;49.890;5.930;2023-05-08T09:37:37;96244.50;;;16.17;100.00
49841;BME280;35738;49.890;5.930;2023-05-08T09:42:40;96249.31;;;16.04;100.00
49841;BME280;35738;49.890;5.930;2023-05-08T09:45:07;96252.88;;;15.89;100.00
49841;BME280;35738;49.890;5.930;2023-05-08T09:47:34;96248.13;;;15.89;100.00
49841;BME280;35738;49.890;5.930;2023-05-08T09:50:09;96251.97;;;15.85;100.00
49841;BME280;35738;49.890;5.930;2023-05-08T09:52:37;96248.34;;;15.69;100.00
49841;BME280;35738;49.890;5.930;2023-05-08T09:55:07;96256.41;;;15.74;100.00
49841;BME280;35738;49.890;5.930;2023-05-08T09:57:36;96269.22;;;15.78;100.00
49841;BME280;35738;49.890;5.930;2023-05-08T10:00:05;96268.41;;;15.78;100.00
49841;BME280;35738;49.890;5.930;2023-05-08T10:02:35;96265.28;;;15.79;100.00
49841;BME280;35738;49.890;5.930;2023-05-08T10:05:03;96266.28;;;15.87;100.00
49841;BME280;35738;49.890;5.930;2023-05-08T10:07:33;96254.22;;;15.95;100.00
49841;BME280;35738;49.890;5.930;2023-05-08T10:10:04;96260.84;;;15.91;100.00
49841;BME280;35738;49.890;5.930;2023-05-08T10:12:32;96258.41;;;15.89;100.00
49841;BME280;35738;49.890;5.930;2023-05-08T10:14:59;96265.06;;;16.00;100.00
49841;BME280;35738;49.890;5.930;2023-05-08T10:20:19;96255.16;;;16.15;100.00
49841;BME280;35738;49.890;5.930;2023-05-08T10:22:48;96256.66;;;16.12;100.00
49841;BME280;35738;49.890;5.930;2023-05-08T10:25:18;96259.88;;;16.14;100.00
49841;BME280;35738;49.890;5.930;2023-05-08T10:30:59;96247.03;;;16.38;100.00
49841;BME280;35738;49.890;5.930;2023-05-08T10:33:30;96260.38;;;16.48;100.00
49841;BME280;35738;49.890;5.930;2023-05-08T10:35:58;96258.69;;;16.59;100.00
49841;BME280;35738;49.890;5.930;2023-05-08T10:38:26;96253.94;;;16.60;100.00
49841;BME280;35738;49.890;5.930;2023-05-08T10:40:53;96258.16;;;16.69;100.00
49841;BME280;35738;49.890;5.930;2023-05-08T10:43:24;96256.69;;;16.91;100.00
49841;BME280;35738;49.890;5.930;2023-05-08T10:45:52;96257.47;;;17.07;100.00
49841;BME280;35738;49.890;5.930;2023-05-08T11:26:13;96239.19;;;17.06;100.00
49841;BME280;35738;49.890;5.930;2023-05-08T11:28:57;96240.13;;;16.95;100.00
49841;BME280;35738;49.890;5.930;2023-05-08T11:31:50;96239.97;;;16.72;100.00
49841;BME280;35738;49.890;5.930;2023-05-08T11:39:36;96252.94;;;16.52;100.00
49841;BME280;35738;49.890;5.930;2023-05-08T11:45:12;96263.47;;;16.31;100.00
49841;BME280;35738;49.890;5.930;2023-05-08T11:47:41;96248.34;;;16.28;100.00
49841;BME280;35738;49.890;5.930;2023-05-08T11:50:09;96256.13;;;16.23;100.00
49841;BME280;35738;49.890;5.930;2023-05-08T11:52:39;96265.63;;;16.21;100.00
49841;BME280;35738;49.890;5.930;2023-05-08T11:55:08;96260.34;;;16.16;100.00
49841;BME280;35738;49.890;5.930;2023-05-08T11:57:35;96259.19;;;16.17;100.00
49841;BME280;35738;49.890;5.930;2023-05-08T12:00:06;96250.84;;;16.17;100.00
49841;BME280;35738;49.890;5.930;2023-05-08T12:02:41;96246.66;;;16.24;100.00
49841;BME280;35738;49.890;5.930;2023-05-08T12:05:11;96255.78;;;16.24;100.00
49841;BME280;35738;49.890;5.930;2023-05-08T12:07:44;96246.75;;;16.27;100.00
49841;BME280;35738;49.890;5.930;2023-05-08T12:10:13;96251.13;;;16.28;100.00
49841;BME280;35738;49.890;5.930;2023-05-08T12:12:42;96234.47;;;16.12;100.00
49841;BME280;35738;49.890;5.930;2023-05-08T12:15:13;96245.13;;;16.10;100.00
49841;BME280;35738;49.890;5.930;2023-05-08T12:17:41;96246.47;;;16.16;100.00
49841;BME280;35738;49.890;5.930;2023-05-08T12:20:15;96255.84;;;16.12;100.00
49841;BME280;35738;49.890;5.930;2023-05-08T12:22:51;96257.25;;;15.90;100.00
49841;BME280;35738;49.890;5.930;2023-05-08T12:25:18;96264.81;;;15.77;100.00
49841;BME280;35738;49.890;5.930;2023-05-08T12:27:45;96260.63;;;15.83;100.00
49841;BME280;35738;49.890;5.930;2023-05-08T12:30:13;96267.25;;;15.79;100.00
49841;BME280;35738;49.890;5.930;2023-05-08T12:32:41;96267.78;;;15.84;100.00
49841;BME280;35738;49.890;5.930;2023-05-08T12:35:12;96264.16;;;15.96;100.00
49841;BME280;35738;49.890;5.930;2023-05-08T12:37:39;96264.78;;;16.05;100.00
49841;BME280;35738;49.890;5.930;2023-05-08T12:40:07;96256.03;;;16.03;100.00
49841;BME280;35738;49.890;5.930;2023-05-08T12:42:49;96262.81;;;16.06;100.00
49841;BME280;35738;49.890;5.930;2023-05-08T12:45:21;96254.06;;;16.04;100.00
49841;BME280;35738;49.890;5.930;2023-05-08T12:47:49;96248.56;;;15.92;100.00
49841;BME280;35738;49.890;5.930;2023-05-08T12:50:18;96244.13;;;16.03;100.00
49841;BME280;35738;49.890;5.930;2023-05-08T12:52:48;96245.72;;;16.04;100.00
49841;BME280;35738;49.890;5.930;2023-05-08T12:58:12;96246.28;;;16.09;100.00
49841;BME280;35738;49.890;5.930;2023-05-08T13:00:49;96245.56;;;16.12;100.00
49841;BME280;35738;49.890;5.930;2023-05-08T13:03:27;96250.22;;;16.24;100.00
49841;BME280;35738;49.890;5.930;2023-05-08T13:05:56;96241.03;;;16.51;100.00
49841;BME280;35738;49.890;5.930;2023-05-08T13:08:32;96237.81;;;16.81;100.00
49841;BME280;35738;49.890;5.930;2023-05-08T13:11:00;96232.69;;;16.83;100.00
49841;BME280;35738;49.890;5.930;2023-05-08T13:13:35;96226.63;;;16.77;100.00
49841;BME280;35738;49.890;5.930;2023-05-08T13:16:05;96221.75;;;16.90;100.00
49841;BME280;35738;49.890;5.930;2023-05-08T13:18:33;96220.69;;;16.63;100.00
49841;BME280;35738;49.890;5.930;2023-05-08T13:21:02;96218.56;;;16.57;100.00
49841;BME280;35738;49.890;5.930;2023-05-08T13:23:29;96221.69;;;16.55;100.00
49841;BME280;35738;49.890;5.930;2023-05-08T13:25:56;96216.06;;;16.67;100.00
49841;BME280;35738;49.890;5.930;2023-05-08T13:28:22;96221.28;;;17.04;100.00
49841;BME280;35738;49.890;5.930;2023-05-08T13:30:49;96213.59;;;17.32;100.00
49841;BME280;35738;49.890;5.930;2023-05-08T13:33:15;96208.47;;;17.54;100.00
49841;BME280;35738;49.890;5.930;2023-05-08T13:35:42;96206.56;;;17.77;100.00
49841;BME280;35738;49.890;5.930;2023-05-08T13:38:08;96195.00;;;17.56;100.00
49841;BME280;35738;49.890;5.930;2023-05-08T13:40:35;96205.69;;;17.54;100.00
49841;BME280;35738;49.890;5.930;2023-05-08T13:43:03;96197.34;;;17.54;100.00
49841;BME280;35738;49.890;5.930;2023-05-08T13:45:29;96197.72;;;17.71;100.00
49841;BME280;35738;49.890;5.930;2023-05-08T13:47:57;96199.53;;;17.83;100.00
49841;BME280;35738;49.890;5.930;2023-05-08T13:50:24;96198.97;;;17.93;100.00
49841;BME280;35738;49.890;5.930;2023-05-08T13:52:50;96191.50;;;17.78;100.00
49841;BME280;35738;49.890;5.930;2023-05-08T13:55:20;96185.47;;;17.95;100.00
49841;BME280;35738;49.890;5.930;2023-05-08T13:57:48;96190.25;;;17.95;100.00
49841;BME280;35738;49.890;5.930;2023-05-08T14:00:15;96179.34;;;17.67;100.00
49841;BME280;35738;49.890;5.930;2023-05-08T14:02:41;96182.56;;;17.30;100.00
49841;BME280;35738;49.890;5.930;2023-05-08T14:05:08;96181.66;;;17.65;100.00
49841;BME280;35738;49.890;5.930;2023-05-08T14:07:35;96184.13;;;18.08;100.00
49841;BME280;35738;49.890;5.930;2023-05-08T14:10:02;96182.94;;;18.32;100.00
49841;BME280;35738;49.890;5.930;2023-05-08T14:12:29;96169.72;;;18.71;100.00
49841;BME280;35738;49.890;5.930;2023-05-08T14:14:55;96167.72;;;18.72;100.00
49841;BME280;35738;49.890;5.930;2023-05-08T14:17:22;96172.59;;;18.79;100.00
49841;BME280;35738;49.890;5.930;2023-05-08T14:19:50;96166.81;;;18.64;100.00
49841;BME280;35738;49.890;5.930;2023-05-08T14:22:16;96166.22;;;18.78;100.00
49841;BME280;35738;49.890;5.930;2023-05-08T14:24:44;96158.03;;;18.62;100.00
49841;BME280;35738;49.890;5.930;2023-05-08T14:27:13;96163.72;;;18.69;100.00
49841;BME280;35738;49.890;5.930;2023-05-08T14:29:40;96159.63;;;18.40;100.00
49841;BME280;35738;49.890;5.930;2023-05-08T14:32:06;96171.06;;;18.58;100.00
49841;BME280;35738;49.890;5.930;2023-05-08T14:34:35;96168.13;;;18.51;100.00